Terminal Aerodrome Forecast
Issued by NWS St Louis, MO

Home | Current Version | Previous Version | Text Only | Print | Product List | Glossary On
Versions: 1 2 3 4 5 6 7 8 9 10 11 12 13 14 15 16 17 18 19 20 21 22 23 24 25 26
368
FTUS43 KLSX 092034 AAA
TAFSTL
TAF AMD
KSTL 092034Z 0921/1024 31015G24KT P6SM -SN SCT029 OVC035
     FM092300 31015G23KT P6SM BKN035
     FM100600 31012KT P6SM BKN200
     FM101900 30010KT P6SM BKN080=

USA.gov is the U.S. government's official web portal to all federal, state and local government web resources and services.